Latest Coastal Weather Observations for Avalon

IDV60701

Issued at 8:25 am EST Tuesday 23 September 2014 (issued every 10 minutes, with the page automatically refreshed every 10 minutes)

About coastal observations | Map of coastal stations | Coastal observations for VIC | Marine services | Other Formats
Station Details ID: 087113 Name: AVALON AIRPORT Lat: -38.03 Lon: 144.48 Height: 10.6 m
Data from the previous 72 hours. | See also: Recent months at Avalon
Date/Time
EST
Temp

°C
Wind Pressure Rain
since 9am
mm
Weather Cloud Vis
km
Sea
Height
m
Swell
Dir
 
Speed
knots
Gust
knots
hPa Trend Height
m
Period
s
Dir
23/08:00am 12.3 ENE 4 5 1026.5 - 0.0 - - 10 - - - -
23/07:30am 8.9 NE 1 3 1026.5 - 0.0 - - 10 - - - -
23/07:00am 4.8 NNW 1 7 1026.3 - 0.0 - - 10 - - - -
23/06:30am 4.5 E 5 6 1026.2 - 0.0 - - 10 - - - -
23/06:00am 3.0 ESE 6 7 1026.0 - 0.0 - - 10 - - - -
23/05:30am 2.8 SE 4 6 1025.7 - 0.0 - - 10 - - - -
23/05:00am 3.7 SSE 3 4 1025.5 - 0.0 - - 10 - - - -
23/04:30am 3.7 SW 3 5 1025.5 - 0.0 - - 10 - - - -
23/04:00am 4.5 N 2 3 1025.2 - 0.0 - - 10 - - - -
23/03:30am 6.6 N 4 5 1025.0 - 0.0 - - 10 - - - -
23/03:00am 5.9 NNE 5 7 1025.2 - 0.0 - - 10 - - - -
23/02:30am 6.3 NNE 3 5 1025.5 - 0.0 - - 10 - - - -
23/02:00am 6.9 NE 7 8 1025.6 - 0.0 - - 10 - - - -
23/01:30am 7.0 NE 5 6 1025.9 - 0.0 - - 10 - - - -
23/01:00am 5.4 WNW 1 3 1026.4 - 0.0 - - 10 - - - -
23/12:30am 7.1 NNE 4 7 1026.4 - 0.0 - - 10 - - - -
23/12:00am 7.6 NNE 1 4 1026.6 - 0.0 - - 10 - - - -
 
Date/Time
EST
Temp

°C
Wind Pressure Rain
since 9am
mm
Weather Cloud Vis
km
Sea
Height
m
Swell
Dir
 
Speed
knots
Gust
knots
hPa Trend Height
m
Period
s
Dir
22/11:30pm 7.2 NNE 4 4 1026.7 - 0.0 - - 10 - - - -
22/11:00pm 8.8 N 4 6 1026.9 - 0.0 - - 10 - - - -
22/10:30pm 9.2 N 6 7 1027.2 - 0.0 - - 10 - - - -
22/10:00pm 8.8 N 5 6 1027.3 - 0.0 - - 10 - - - -
22/09:30pm 9.4 NW 4 5 1027.1 - 0.0 - - 10 - - - -
22/09:00pm 10.7 CALM 0 0 1027.0 - 0.0 - - 10 - - - -
22/08:30pm 11.2 WNW 3 7 1027.0 - 0.0 - - 10 - - - -
22/08:00pm 13.7 ESE 6 7 1026.7 - 0.0 - - 10 - - - -
22/07:30pm 12.6 ESE 4 5 1026.4 - 0.0 - - 10 - - - -
22/07:00pm 14.4 ESE 6 6 1026.1 - 0.0 - - 10 - - - -
22/06:30pm 15.2 ESE 5 6 1025.9 - 0.0 - - 10 - - - -
22/06:00pm 16.4 ESE 6 6 1025.9 - 0.0 - - 10 - - - -
22/05:30pm 18.2 SE 6 7 1025.6 - 0.0 - - 10 - - - -
22/05:00pm 19.9 SE 7 9 1025.4 - 0.0 - - 10 - - - -
22/04:30pm 20.6 SE 9 10 1025.4 - 0.0 - - 10 - - - -
22/04:00pm 20.8 SE 9 12 1025.4 - 0.0 - - 10 - - - -
22/03:30pm 20.7 ESE 9 11 1025.5 - 0.0 - - 10 - - - -
22/03:00pm 20.8 SE 9 11 1025.6 - 0.0 - - 10 - - - -
22/02:30pm 20.7 SE 10 13 1025.9 - 0.0 - - 10 - - - -
22/02:00pm 21.1 SE 9 11 1026.1 - 0.0 - - 10 - - - -
22/01:30pm 20.4 SE 10 12 1026.5 - 0.0 - - 10 - - - -
22/01:00pm 19.4 SE 11 13 1026.9 - 0.0 - - 10 - - - -
22/12:30pm 18.1 ESE 10 11 1027.4 - 0.0 - - 10 - - - -
22/12:00pm 18.0 ESE 10 12 1027.9 - 0.0 - - 10 - - - -
22/11:30am 17.9 E 8 9 1028.2 - 0.0 - - 10 - - - -
22/11:00am 17.5 SE 11 13 1028.5 - 0.0 - - 10 - - - -
22/10:30am 17.2 NE 6 9 1028.9 - 0.0 - - 10 - - - -
22/10:00am 16.1 NE 6 9 1029.3 - 0.0 - - 10 - - - -
22/09:30am 14.3 NE 6 8 1029.5 - 0.0 - - 10 - - - -
22/09:00am 13.0 NNE 5 7 1029.7 - 0.0 - - 10 - - - -
22/08:30am 11.9 ENE 2 4 1029.8 - 0.0 - - 10 - - - -
22/08:00am 8.9 ENE 2 4 1029.8 - 0.0 - - 10 - - - -
22/07:30am 5.3 N 2 3 1029.5 - 0.0 - - 10 - - - -
22/07:00am 2.4 CALM 0 4 1029.4 - 0.0 - - 10 - - - -
22/06:30am 1.9 CALM 0 0 1029.3 - 0.0 - - 10 - - - -
22/06:00am 0.8 NW 3 4 1029.1 - 0.0 - - 10 - - - -
22/05:30am 1.2 NW 4 4 1028.8 - 0.0 - - 10 - - - -
22/05:00am -0.2 NNW 5 5 1028.7 - 0.0 - - 10 - - - -
22/04:30am 2.0 N 3 4 1028.6 - 0.0 - - 10 - - - -
22/04:00am 2.5 NW 3 4 1028.6 - 0.0 - - 10 - - - -
22/03:30am 1.7 WNW 4 4 1028.8 - 0.0 - - 10 - - - -
22/03:00am 2.9 NW 2 3 1028.8 - 0.0 - - 10 - - - -
22/02:30am 2.7 NW 3 4 1029.1 - 0.0 - - 10 - - - -
22/02:00am 3.3 NNW 3 4 1029.4 - 0.0 - - 10 - - - -
22/01:30am 3.4 NNW 3 3 1029.6 - 0.0 - - 10 - - - -
22/01:00am 3.5 WNW 3 4 1029.8 - 0.0 - - 10 - - - -
22/12:30am 4.1 WNW 3 4 1029.8 - 0.0 - - 10 - - - -
22/12:00am 3.8 WNW 4 5 1029.8 - 0.0 - - 10 - - - -
 
Date/Time
EST
Temp

°C
Wind Pressure Rain
since 9am
mm
Weather Cloud Vis
km
Sea
Height
m
Swell
Dir
 
Speed
knots
Gust
knots
hPa Trend Height
m
Period
s
Dir
21/11:30pm 4.2 NNW 5 5 1029.8 - 0.0 - - 10 - - - -
21/11:00pm 4.4 N 5 6 1030.2 - 0.0 - - 10 - - - -
21/10:30pm 5.0 N 6 7 1030.3 - 0.0 - - 10 - - - -
21/10:00pm 5.6 N 3 4 1030.5 - 0.0 - - 10 - - - -
21/09:30pm 6.9 CALM 0 0 1030.6 - 0.0 - - 10 - - - -
21/09:00pm 5.9 CALM 0 0 1030.7 - 0.0 - - 10 - - - -
21/08:30pm 8.1 SE 2 4 1030.9 - 0.0 - - 10 - - - -
21/08:00pm 8.0 SSE 5 7 1030.9 - 0.0 - - 10 - - - -
21/07:30pm 8.1 SSE 6 7 1030.7 - 0.0 - - 10 - - - -
21/07:00pm 8.3 SSE 7 8 1030.6 - 0.0 - - 10 - - - -
21/06:30pm 9.3 SSE 8 9 1030.2 - 0.0 - - 10 - - - -
21/06:00pm 11.5 SSE 8 9 1030.0 - 0.0 - - 10 - - - -
21/05:30pm 13.3 SSE 8 11 1029.9 - 0.0 - - 10 - - - -
21/05:00pm 14.3 SSE 9 11 1029.7 - 0.0 - - 10 - - - -
21/04:30pm 15.0 SE 6 9 1029.6 - 0.0 - - 10 - - - -
21/04:00pm 15.1 ESE 7 9 1029.8 - 0.0 - - 10 - - - -
21/03:30pm 15.5 ESE 7 9 1029.8 - 0.0 - - 10 - - - -
21/03:00pm 15.2 SSE 7 9 1030.0 - 0.0 - - 10 - - - -
21/02:30pm 15.6 ESE 5 10 1030.2 - 0.0 - - 10 - - - -
21/02:00pm 15.4 E 6 10 1030.5 - 0.0 - - 10 - - - -
21/01:30pm 15.6 SSE 5 11 1030.8 - 0.0 - - 10 - - - -
21/01:00pm 15.4 SE 9 13 1031.3 - 0.0 - Partly cloudy 10 - - - -
21/12:30pm 15.2 ESE 9 13 1031.6 - 0.0 - Partly cloudy 10 - - - -
21/12:00pm 14.9 SSE 7 10 1031.9 - 0.0 - Partly cloudy 10 - - - -
21/11:30am 14.5 SSE 8 11 1032.2 - 0.0 - Cloudy 10 - - - -
21/11:00am 14.6 ESE 9 13 1032.4 - 0.0 - Cloudy 10 - - - -
21/10:30am 14.1 SE 9 13 1032.4 - 0.0 - Cloudy 10 - - - -
21/10:00am 13.9 SE 8 13 1032.5 - 0.0 - Cloudy 10 - - - -
21/09:30am 14.2 SSE 7 11 1032.1 - 0.0 - Cloudy 10 - - - -
21/09:00am 13.8 ESE 7 11 1031.8 - 0.0 - Cloudy 10 - - - -
21/08:30am 13.5 SSE 1 5 1031.7 - 0.0 - Partly cloudy 10 - - - -
21/08:00am 11.7 NNW 3 4 1031.4 - 0.0 - Partly cloudy 10 - - - -
21/07:30am 9.6 NW 1 4 1031.4 - 0.0 - Cloudy 10 - - - -
21/07:00am 9.0 W 5 6 1031.3 - 0.0 - Cloudy 10 - - - -
21/06:30am 8.4 NW 3 4 1030.9 - 0.0 - Cloudy 10 - - - -
21/06:00am 8.2 NNW 5 6 1030.6 - 0.0 - Cloudy 10 - - - -
21/05:30am 8.5 WNW 4 5 1030.2 - 0.0 - Cloudy 10 - - - -
21/05:00am 8.5 WNW 3 4 1030.3 - 0.0 - Cloudy 10 - - - -
21/04:30am 8.2 WNW 4 5 1030.2 - 0.0 - Cloudy 10 - - - -
21/04:00am 7.6 WNW 4 5 1030.0 - 0.0 - Cloudy 10 - - - -
21/03:30am 7.2 NNW 5 6 1029.9 - 0.0 - Cloudy 10 - - - -
21/03:00am 7.5 NNW 5 6 1030.0 - 0.0 - Cloudy 10 - - - -
21/02:30am 7.4 CALM 0 0 1030.4 - 0.0 - Cloudy 10 - - - -
21/02:00am 7.5 NW 4 5 1030.4 - 0.0 - Cloudy 10 - - - -
21/01:30am 7.0 NW 4 5 1030.5 - 0.0 - Cloudy 10 - - - -
21/01:00am 6.3 NW 5 6 1030.5 - 0.0 - Cloudy 10 - - - -
21/12:30am 5.6 NW 5 6 1030.5 - 0.0 - Cloudy 10 - - - -
21/12:00am 5.5 WNW 5 5 1030.5 - 0.0 - Mostly cloudy 10 - - - -
 
Date/Time
EST
Temp

°C
Wind Pressure Rain
since 9am
mm
Weather Cloud Vis
km
Sea
Height
m
Swell
Dir
 
Speed
knots
Gust
knots
hPa Trend Height
m
Period
s
Dir
20/11:30pm 5.1 WNW 5 5 1030.4 - 0.0 - - 10 - - - -
20/11:18pm 5.0 NW 2 5 1030.4 - 0.0 - - 10 - - - -
20/11:00pm 7.5 ESE 2 3 1030.5 - 0.0 - - 2 - - - -
20/10:58pm 7.8 ESE 3 4 1030.5 - 0.0 - - 3 - - - -
20/10:30pm 8.0 SE 5 6 1030.3 - 0.0 - - 10 - - - -
20/10:00pm 8.0 SE 6 7 1030.4 - 0.0 - - 10 - - - -
20/09:30pm 8.1 SSE 6 7 1030.4 - 0.0 - Partly cloudy 10 - - - -
20/09:00pm 10.9 SSE 7 9 1030.4 - 0.0 - Cloudy 10 - - - -
20/08:30pm 11.3 S 9 11 1030.5 - 0.0 - Cloudy 10 - - - -
20/08:00pm 9.6 S 4 9 1030.5 - 0.0 - Partly cloudy 10 - - - -
20/07:30pm 9.5 SSE 5 6 1030.2 - 0.0 - Partly cloudy 10 - - - -
20/07:00pm 8.9 S 5 6 1029.8 - 0.0 - - 10 - - - -
20/06:30pm 10.4 S 8 10 1029.5 - 0.0 - Partly cloudy 10 - - - -
20/06:00pm 12.3 S 12 15 1029.4 - 0.0 - Mostly cloudy 10 - - - -
20/05:30pm 13.1 S 12 15 1029.0 - 0.0 - Partly cloudy 10 - - - -
20/05:00pm 13.9 S 15 18 1028.6 - 0.0 - Partly cloudy 10 - - - -
20/04:30pm 14.2 S 14 19 1028.2 - 0.0 - - 10 - - - -
20/04:00pm 14.6 S 16 19 1028.1 - 0.0 - - 10 - - - -
20/03:30pm 14.9 S 16 19 1027.9 - 0.0 - - 10 - - - -
20/03:00pm 15.3 S 15 19 1027.6 - 0.0 - - 10 - - - -
20/02:30pm 15.4 S 15 19 1027.6 - 0.0 - - 10 - - - -
20/02:00pm 15.7 S 12 17 1027.5 - 0.0 - Partly cloudy 10 - - - -
20/01:30pm 15.1 SSW 13 18 1027.6 - 0.0 - Cloudy 10 - - - -
20/01:00pm 14.6 S 12 15 1027.8 - 0.0 - Cloudy 10 - - - -
20/12:30pm 14.4 S 13 16 1027.9 - 0.0 - Cloudy 10 - - - -
20/12:00pm 14.9 S 10 14 1028.1 - 0.0 - Mostly cloudy 10 - - - -
20/11:30am 13.2 SW 5 7 1028.2 - 0.0 - Partly cloudy 10 - - - -
20/11:00am 13.3 S 9 11 1028.5 - 0.0 - Partly cloudy 10 - - - -
20/10:30am 13.9 S 5 8 1028.5 - 0.0 - Partly cloudy 10 - - - -
20/10:00am 11.9 SSE 4 6 1028.6 - 0.0 - Partly cloudy 10 - - - -
20/09:30am 12.9 SSW 6 8 1028.6 - 0.0 - Partly cloudy 10 - - - -
20/09:00am 12.6 SW 5 7 1028.5 - 0.0 - Cloudy 10 - - - -
20/08:30am 11.2 SW 5 8 1028.4 - 0.0 - Partly cloudy 10 - - - -

Other Formats:

Comma delimited format used in spreadsheet applications
http://www.bom.gov.au/fwo/IDV60701/IDV60701.94854.axf

JavaScript Object Notation format (JSON) in row-major order
http://www.bom.gov.au/fwo/IDV60701/IDV60701.94854.json